Capitol Logistics 445


KHSV
Huntsville International Airport
Huntsville, Alabama, US
KIAD
Washington Dulles International Airport
Dulles, Virginia, US

Activity Log

Date Flight Route Aircraft Duration
12/18/2019 CPX445 BNA HVQ GIBBZ3 B763 1h 42m

Route Details

Aircraft Information
Primary: Boeing 757-200SF
Backup: Boeing 767-300BDSF
Route Data
Distance: 517nm
Sched. Duration: 1h 53m
Avg. Duration: 1h 42m (-10m)
Times Flown: 1
Recm'd Route: BNA HVQ GIBBZ3
Planned Altitude: 33,000ft
Origin Wx: KHSV 271653Z 33007KT 10SM BKN036 03/M05 A3031 RMK AO2 SLP266 T00331050
Dest. Wx: KIAD 271652Z 28018G30KT 10SM SCT060 05/M07 A2982 RMK AO2 PK WND 29033/1630 SLP097 T00501072
Notes:

Financial History
Total Freight: 63,516lbs
Average Load: 63,516lbs/flt
Fuel Used: 16,603lbs
Avg. Fuel Used: 16,603lbs/flt
Fuel Expense: $14,943
Avg. Fuel Expense: $14,943
Avg. Fuel Cost: $0.90/lbs
Total Gross Income: $90,193
Pilot Pay: $229
Total Expenses: $9,793
Total Revenue: $65,130
Average Revenue: $90,192.72